Time;durP1;ratioP1;P1;durP2;ratioP2;P2;SDS_P1;SDS_P2;PMS_P1;PMS_P2;Temp;Humidity;BMP_temperature;BMP_pressure;BME280_temperature;BME280_humidity;BME280_pressure;Samples;Min_cycle;Max_cycle;Signal;HPM_P1;HPM_P2
2023/10/16 00:01:09;;;;;;;;;6.25;6.00;;;;;11.56;100.00;98879.38;6212247;28;96378;-69
2023/10/16 00:04:14;;;;;;;;;8.00;8.00;;;;;11.48;100.00;98882.41;6193115;28;96562;-69
2023/10/16 00:07:20;;;;;;;;;6.60;5.00;;;;;11.34;100.00;98867.44;6187806;28;96580;-69
2023/10/16 00:10:24;;;;;;;;;8.00;7.00;;;;;11.18;100.00;98868.84;6186846;28;96215;-69
2023/10/16 00:13:28;;;;;;;;;7.00;6.60;;;;;11.21;100.00;98869.22;6187409;28;96539;-69
2023/10/16 00:16:33;;;;;;;;;6.00;6.00;;;;;11.21;100.00;98874.63;6186942;28;96453;-69
2023/10/16 00:19:38;;;;;;;;;7.00;7.00;;;;;11.08;100.00;98880.19;6187942;28;96295;-69
2023/10/16 00:22:43;;;;;;;;;5.00;5.00;;;;;11.08;100.00;98879.34;6187737;28;96777;-69
2023/10/16 00:25:50;;;;;;;;;6.00;5.60;;;;;11.01;100.00;98883.97;6188142;28;96296;-68
2023/10/16 00:29:07;;;;;;;;;6.75;6.00;;;;;10.95;100.00;98876.78;6188086;28;96420;-69
2023/10/16 00:32:12;;;;;;;;;6.75;6.75;;;;;10.86;100.00;98877.09;6187779;28;96357;-68
2023/10/16 00:35:16;;;;;;;;;6.00;5.60;;;;;10.81;100.00;98873.41;6187078;28;96852;-68
2023/10/16 00:38:22;;;;;;;;;7.80;6.20;;;;;10.89;100.00;98881.22;6185848;28;96551;-69
2023/10/16 00:41:28;;;;;;;;;7.00;6.00;;;;;10.91;100.00;98883.69;6187594;28;96271;-69
2023/10/16 00:44:34;;;;;;;;;5.75;5.00;;;;;10.85;100.00;98883.53;6185257;28;97314;-69
2023/10/16 00:47:39;;;;;;;;;6.00;6.00;;;;;10.90;100.00;98890.16;6187504;28;97232;-69
2023/10/16 00:50:48;;;;;;;;;6.00;5.40;;;;;10.89;100.00;98880.41;6185540;28;96726;-69
2023/10/16 00:53:53;;;;;;;;;8.00;6.00;;;;;10.94;100.00;98894.88;6197707;28;97814;-69
2023/10/16 00:56:59;;;;;;;;;7.00;6.40;;;;;10.95;100.00;98887.56;6173906;28;96857;-69
2023/10/16 01:00:03;;;;;;;;;5.75;5.75;;;;;10.93;100.00;98901.31;6198738;28;96494;-69
2023/10/16 01:03:06;;;;;;;;;6.40;5.00;;;;;10.96;100.00;98891.94;6201888;22;96907;-64
2023/10/16 01:06:16;;;;;;;;;4.60;4.60;;;;;10.96;100.00;98898.16;6185014;28;97243;-64
2023/10/16 01:09:23;;;;;;;;;7.00;6.25;;;;;10.93;100.00;98906.69;6184740;28;97117;-62
2023/10/16 01:12:26;;;;;;;;;6.00;5.00;;;;;10.93;100.00;98901.31;6192103;28;96428;-62
2023/10/16 01:15:30;;;;;;;;;6.00;5.00;;;;;10.94;100.00;98905.66;6193524;28;96515;-62
2023/10/16 01:18:34;;;;;;;;;5.00;5.00;;;;;10.99;100.00;98902.28;6189758;28;97869;-62
2023/10/16 01:21:39;;;;;;;;;7.60;7.60;;;;;11.04;100.00;98905.13;6190810;28;96288;-62
2023/10/16 01:24:48;;;;;;;;;7.20;6.80;;;;;11.10;100.00;98905.03;6190460;28;96715;-63
2023/10/16 01:27:51;;;;;;;;;6.00;6.00;;;;;11.05;100.00;98907.59;6172479;28;96483;-62
2023/10/16 01:30:54;;;;;;;;;5.75;5.00;;;;;11.03;100.00;98898.09;6189315;28;97003;-62
2023/10/16 01:33:58;;;;;;;;;7.00;7.00;;;;;10.85;100.00;98864.66;6190805;28;96355;-62
2023/10/16 01:37:08;;;;;;;;;5.60;5.00;;;;;11.05;100.00;98898.66;6187974;28;97645;-63
2023/10/16 01:40:21;;;;;;;;;7.00;6.60;;;;;11.09;100.00;98897.19;6194202;28;96261;-62
2023/10/16 01:43:25;;;;;;;;;9.00;8.00;;;;;11.12;100.00;98894.88;6187539;28;96969;-62
2023/10/16 01:46:29;;;;;;;;;8.00;7.00;;;;;11.01;100.00;98895.59;6191383;28;96345;-62
2023/10/16 01:49:32;;;;;;;;;7.60;7.00;;;;;11.03;100.00;98898.91;6191495;28;96251;-62
2023/10/16 01:52:36;;;;;;;;;9.00;8.00;;;;;11.12;100.00;98902.13;6191255;28;96567;-62
2023/10/16 01:55:42;;;;;;;;;5.00;5.00;;;;;11.06;100.00;98894.94;6190677;28;96251;-63
2023/10/16 01:58:46;;;;;;;;;5.20;4.80;;;;;11.10;100.00;98886.16;6163140;28;96828;-62
2023/10/16 02:01:49;;;;;;;;;7.00;6.00;;;;;11.20;100.00;98882.94;6194101;28;96266;-62
2023/10/16 02:04:53;;;;;;;;;6.00;5.33;;;;;11.37;100.00;98886.69;6204856;28;96441;-63
2023/10/16 02:07:57;;;;;;;;;5.50;5.00;;;;;11.33;100.00;98887.38;6201045;28;97112;-62
2023/10/16 02:11:02;;;;;;;;;2.80;2.80;;;;;11.24;100.00;98895.75;6217986;28;96966;-62
2023/10/16 02:14:05;;;;;;;;;2.40;2.40;;;;;11.25;100.00;98886.59;6198987;28;96465;-63
2023/10/16 02:17:14;;;;;;;;;5.40;5.00;;;;;11.40;100.00;98893.50;6198347;28;96367;-62
2023/10/16 02:20:20;;;;;;;;;4.50;4.00;;;;;11.41;100.00;98895.97;6197061;28;96386;-64
2023/10/16 02:23:26;;;;;;;;;5.00;5.00;;;;;11.50;100.00;98897.31;6215333;28;96400;-64
2023/10/16 02:26:34;;;;;;;;;4.00;3.00;;;;;11.59;100.00;98904.03;6215115;28;96761;-63
2023/10/16 02:29:39;;;;;;;;;3.00;3.00;;;;;11.66;100.00;98903.97;6196902;28;98366;-64
2023/10/16 02:32:43;;;;;;;;;4.75;4.00;;;;;11.59;100.00;98898.63;6206892;28;96597;-63
2023/10/16 02:35:50;;;;;;;;;3.00;3.00;;;;;11.61;100.00;98901.13;6211520;28;97580;-64
2023/10/16 02:38:55;;;;;;;;;5.00;4.00;;;;;11.61;100.00;98910.03;6196582;28;96520;-63
2023/10/16 02:42:00;;;;;;;;;3.00;3.00;;;;;11.54;100.00;98901.19;6214470;28;96725;-63
2023/10/16 02:45:04;;;;;;;;;3.40;3.40;;;;;11.57;100.00;98906.16;6214596;28;96545;-64
2023/10/16 02:48:09;;;;;;;;;3.00;3.00;;;;;11.68;100.00;98912.63;6194300;28;97752;-63
2023/10/16 02:51:14;;;;;;;;;4.00;4.00;;;;;11.77;100.00;98911.31;6212448;28;97126;-64
2023/10/16 02:54:17;;;;;;;;;4.00;4.00;;;;;11.67;100.00;98917.25;6196728;28;96516;-63
2023/10/16 02:57:21;;;;;;;;;4.00;4.00;;;;;11.75;100.00;98896.38;6190186;28;96335;-64
2023/10/16 03:00:25;;;;;;;;;4.00;3.00;;;;;11.78;100.00;98918.34;6180998;28;98471;-63
2023/10/16 03:03:28;;;;;;;;;3.00;3.00;;;;;11.77;100.00;98915.91;6208874;28;96271;-63
2023/10/16 03:06:39;;;;;;;;;3.00;3.00;;;;;11.82;100.00;98921.44;6214479;28;96299;-63
2023/10/16 03:09:44;;;;;;;;;5.00;5.00;;;;;11.72;100.00;98908.47;6174568;28;98459;-62
2023/10/16 03:12:50;;;;;;;;;2.50;2.25;;;;;11.79;100.00;98916.47;6212728;28;97532;-63
2023/10/16 03:16:00;;;;;;;;;1.25;1.25;;;;;11.83;100.00;98928.47;6212929;28;97914;-63
2023/10/16 03:19:08;;;;;;;;;1.00;1.00;;;;;11.78;100.00;98918.34;6211321;28;96234;-63
2023/10/16 03:22:12;;;;;;;;;3.00;3.00;;;;;11.89;100.00;98924.84;6212391;28;98288;-64
2023/10/16 03:25:50;;;;;;;;;2.00;2.00;;;;;11.89;100.00;98925.69;6193794;28;97641;-64
2023/10/16 03:28:50;;;;;;;;;3.00;3.00;;;;;11.94;100.00;98922.28;6211557;28;97125;-64
2023/10/16 03:31:53;;;;;;;;;2.20;2.00;;;;;11.84;100.00;98922.84;6205217;28;98233;-64
2023/10/16 03:34:57;;;;;;;;;3.00;3.00;;;;;11.84;100.00;98924.72;6177286;28;96600;-64
2023/10/16 03:38:08;;;;;;;;;5.00;5.00;;;;;11.81;100.00;98920.63;6191870;28;97420;-64
2023/10/16 03:41:19;;;;;;;;;2.80;2.80;;;;;11.83;100.00;98923.06;6194699;28;96537;-64
2023/10/16 03:44:26;;;;;;;;;3.00;3.00;;;;;11.91;100.00;98926.28;6194449;28;98099;-64
2023/10/16 03:47:32;;;;;;;;;2.80;2.80;;;;;12.02;100.00;98927.41;6207457;28;96944;-62
2023/10/16 03:50:38;;;;;;;;;3.00;2.00;;;;;11.94;100.00;98911.50;6196736;28;96673;-62
2023/10/16 03:53:42;;;;;;;;;3.00;2.00;;;;;12.00;100.00;98918.69;6214657;28;96756;-63
2023/10/16 03:56:45;;;;;;;;;2.00;2.00;;;;;12.03;100.00;98924.44;6173180;28;96714;-62
2023/10/16 03:59:51;;;;;;;;;3.00;3.00;;;;;12.10;100.00;98908.97;6179926;28;97040;-62
2023/10/16 04:02:59;;;;;;;;;2.00;2.00;;;;;12.14;100.00;98912.03;6203304;28;96362;-62
2023/10/16 04:06:08;;;;;;;;;2.00;1.00;;;;;12.15;100.00;98913.69;6189289;28;96471;-62
2023/10/16 04:09:13;;;;;;;;;1.00;1.00;;;;;12.21;100.00;98915.47;6187144;28;96247;-62
2023/10/16 04:12:20;;;;;;;;;1.00;1.00;;;;;12.29;100.00;98925.94;6186042;28;96684;-62
2023/10/16 04:15:48;;;;;;;;;3.00;3.00;;;;;12.32;100.00;98930.88;6191023;28;96682;-62
2023/10/16 04:18:51;;;;;;;;;5.50;5.00;;;;;12.34;100.00;98934.19;6189437;28;96282;-61
2023/10/16 04:21:54;;;;;;;;;4.00;4.00;;;;;12.34;100.00;98928.75;6186899;28;96670;-61
2023/10/16 04:24:59;;;;;;;;;2.00;2.00;;;;;12.38;100.00;98931.81;6187746;28;97867;-62
2023/10/16 04:28:18;;;;;;;;;2.00;2.00;;;;;12.38;100.00;98929.94;6191596;28;97677;-62
2023/10/16 04:31:43;;;;;;;;;1.00;1.00;;;;;12.34;100.00;98931.47;6162952;28;99529;-63
2023/10/16 04:34:53;;;;;;;;;2.00;2.00;;;;;12.40;100.00;98927.03;6187949;28;96426;-62
2023/10/16 04:37:56;;;;;;;;;2.00;1.40;;;;;12.34;100.00;98930.66;6188114;28;96425;-62
2023/10/16 04:47:48;;;;;;;;;5.60;5.60;;;;;12.42;100.00;98927.59;6175122;28;96841;-64
2023/10/16 04:51:09;;;;;;;;;6.00;6.00;;;;;12.47;100.00;98931.25;6188376;28;96530;-65
2023/10/16 04:54:27;;;;;;;;;5.60;5.60;;;;;12.44;100.00;98945.25;6186420;28;96498;-64
2023/10/16 04:57:47;;;;;;;;;4.60;4.60;;;;;12.47;100.00;98933.13;6183376;28;96717;-63
2023/10/16 05:01:17;;;;;;;;;4.00;4.00;;;;;12.41;100.00;98942.19;6173931;28;96337;-64
2023/10/16 05:08:02;;;;;;;;;3.00;3.00;;;;;12.40;100.00;98948.66;6192315;28;97224;-65
2023/10/16 05:15:20;;;;;;;;;4.00;3.00;;;;;12.46;100.00;98953.13;6211025;28;96622;-63
2023/10/16 05:18:10;;;;;;;;;5.00;5.00;;;;;12.46;100.00;98950.44;6180102;28;98117;-63
2023/10/16 06:15:26;;;;;;;;;2.00;2.00;;;;;12.69;100.00;98991.03;6179751;28;96967;-60
2023/10/16 06:18:30;;;;;;;;;3.40;3.40;;;;;12.61;100.00;98994.06;6220557;28;96613;-59
2023/10/16 06:21:33;;;;;;;;;2.80;2.20;;;;;12.75;100.00;98990.13;6220206;28;96346;-60
2023/10/16 06:24:38;;;;;;;;;4.00;3.00;;;;;12.81;100.00;98993.75;6218841;28;96873;-59
2023/10/16 06:27:43;;;;;;;;;5.00;5.00;;;;;12.82;100.00;98995.41;6220746;28;96142;-59
2023/10/16 06:30:46;;;;;;;;;3.50;3.50;;;;;12.66;100.00;98999.59;6219526;28;96687;-61
2023/10/16 06:33:53;;;;;;;;;5.40;5.00;;;;;12.67;100.00;98995.84;6201625;28;96390;-59
2023/10/16 06:36:56;;;;;;;;;5.00;5.00;;;;;12.64;100.00;99001.72;6220666;28;96400;-59
2023/10/16 06:40:01;;;;;;;;;6.40;5.00;;;;;12.55;100.00;99003.94;6219277;28;96422;-59
2023/10/16 06:43:13;;;;;;;;;3.40;3.00;;;;;12.66;100.00;99002.31;6220064;28;96393;-59
2023/10/16 06:46:22;;;;;;;;;3.60;3.60;;;;;12.64;100.00;99011.72;6220305;28;96234;-60
2023/10/16 06:49:27;;;;;;;;;3.00;3.00;;;;;12.50;100.00;99016.50;6218752;28;96272;-59
2023/10/16 06:52:30;;;;;;;;;4.25;4.25;;;;;12.46;100.00;99010.72;6219243;28;96629;-60
2023/10/16 06:55:34;;;;;;;;;3.00;3.00;;;;;12.51;100.00;99024.38;6197663;28;96857;-59
2023/10/16 06:58:40;;;;;;;;;6.00;5.00;;;;;12.32;100.00;99039.00;6219330;28;96444;-63
2023/10/16 07:01:46;;;;;;;;;3.50;3.50;;;;;12.42;100.00;99024.94;6215657;28;96444;-63
2023/10/16 07:04:50;;;;;;;;;4.00;4.00;;;;;12.36;100.00;99028.56;6213704;28;96751;-63
2023/10/16 07:07:56;;;;;;;;;7.60;7.60;;;;;12.44;100.00;99042.59;6196565;28;96702;-63
2023/10/16 07:11:03;;;;;;;;;5.40;5.00;;;;;12.40;100.00;99043.28;6195647;28;96811;-63
2023/10/16 07:14:12;;;;;;;;;4.00;4.00;;;;;12.46;100.00;99034.25;6212006;28;96341;-63
2023/10/16 07:17:16;;;;;;;;;5.00;5.00;;;;;12.35;100.00;99037.72;6208468;28;96493;-63
2023/10/16 07:20:27;;;;;;;;;7.40;7.40;;;;;12.33;100.00;99051.47;6194898;28;96689;-63
2023/10/16 07:23:34;;;;;;;;;4.60;4.00;;;;;12.33;100.00;99039.84;6213332;28;96737;-63
2023/10/16 07:26:38;;;;;;;;;5.60;4.60;;;;;12.40;100.00;99045.97;6187323;28;96383;-63
2023/10/16 07:29:43;;;;;;;;;5.00;4.00;;;;;12.50;100.00;99048.97;6185684;28;96704;-63
2023/10/16 07:32:46;;;;;;;;;4.00;4.00;;;;;12.57;100.00;99049.69;6190062;28;97557;-63
2023/10/16 07:35:51;;;;;;;;;5.00;4.00;;;;;12.45;100.00;99030.72;6211987;28;97773;-63
2023/10/16 07:38:54;;;;;;;;;6.00;6.00;;;;;12.66;100.00;99045.56;6203744;28;96344;-64
2023/10/16 07:41:58;;;;;;;;;6.00;6.00;;;;;12.68;100.00;99054.31;6214008;28;96562;-63
2023/10/16 07:45:03;;;;;;;;;5.40;5.40;;;;;12.56;100.00;99045.31;6196118;28;96400;-63
2023/10/16 07:48:16;;;;;;;;;7.00;7.00;;;;;12.55;100.00;99036.41;6187231;28;97064;-63
2023/10/16 07:51:21;;;;;;;;;4.50;4.50;;;;;12.57;100.00;99052.38;6188982;28;96545;-71
2023/10/16 07:54:24;;;;;;;;;5.00;5.00;;;;;12.74;100.00;99049.84;6188578;28;97582;-71
2023/10/16 07:57:27;;;;;;;;;5.50;5.50;;;;;12.70;100.00;99057.63;6196887;28;96479;-71
2023/10/16 08:00:41;;;;;;;;;6.00;6.00;;;;;12.64;100.00;99060.41;6212998;28;96419;-71
2023/10/16 08:03:46;;;;;;;;;3.00;3.00;;;;;12.65;100.00;99060.19;6211165;28;96496;-71
2023/10/16 08:06:52;;;;;;;;;2.20;2.00;;;;;12.63;100.00;99066.88;6213464;28;96563;-72
2023/10/16 08:10:28;;;;;;;;;3.25;3.25;;;;;12.73;100.00;99064.44;6187537;28;96885;-73
2023/10/16 08:13:24;;;;;;;;;3.80;3.80;;;;;12.83;100.00;99062.81;6188190;28;96330;-73
2023/10/16 08:16:29;;;;;;;;;6.00;5.00;;;;;12.81;100.00;99059.50;6171047;28;96561;-73
2023/10/16 08:19:34;;;;;;;;;5.20;5.00;;;;;12.91;100.00;99061.63;6188351;28;96401;-73
2023/10/16 08:22:37;;;;;;;;;4.00;3.75;;;;;13.06;100.00;99062.03;6170566;28;96377;-73
2023/10/16 08:25:40;;;;;;;;;7.00;6.40;;;;;13.05;100.00;99054.94;6187212;28;96809;-72
2023/10/16 08:28:46;;;;;;;;;4.40;4.40;;;;;13.14;100.00;99052.78;6194047;28;96416;-72
2023/10/16 08:32:37;;;;;;;;;4.00;4.00;;;;;13.08;100.00;99068.03;6195454;28;96326;-72
2023/10/16 08:35:17;;;;;;;;;4.00;3.50;;;;;13.23;100.00;99067.63;6193391;28;98613;-73
2023/10/16 08:38:20;;;;;;;;;4.00;4.00;;;;;13.27;100.00;99074.19;6186883;28;96855;-73
2023/10/16 08:41:32;;;;;;;;;3.60;3.20;;;;;13.33;100.00;99081.41;6170401;28;96400;-74
2023/10/16 08:44:37;;;;;;;;;7.00;7.00;;;;;13.33;100.00;99075.97;6188562;28;96360;-73
2023/10/16 08:47:42;;;;;;;;;5.80;5.80;;;;;13.42;100.00;99082.69;6185543;28;97099;-73
2023/10/16 08:50:57;;;;;;;;;6.40;5.40;;;;;13.19;100.00;99074.56;6169401;28;97091;-73
2023/10/16 08:54:02;;;;;;;;;6.50;6.00;;;;;13.35;100.00;99079.25;6169364;28;96603;-73
2023/10/16 08:57:07;;;;;;;;;5.60;5.60;;;;;13.45;100.00;99076.78;6197258;28;96341;-73
2023/10/16 09:00:19;;;;;;;;;5.50;5.00;;;;;13.47;100.00;99085.53;6190279;28;96842;-73
2023/10/16 09:03:26;;;;;;;;;4.00;4.00;;;;;13.25;100.00;99082.56;6211487;28;96520;-73
2023/10/16 09:06:30;;;;;;;;;4.00;3.00;;;;;13.21;100.00;99077.84;6196948;28;96693;-73
2023/10/16 09:09:34;;;;;;;;;6.00;5.00;;;;;13.33;100.00;99082.22;6225388;28;96805;-71
2023/10/16 09:12:44;;;;;;;;;6.00;4.00;;;;;13.38;100.00;99090.47;6193256;28;98474;-71
2023/10/16 09:15:48;;;;;;;;;5.00;5.00;;;;;13.32;100.00;99096.81;6216338;28;96563;-72
2023/10/16 09:18:53;;;;;;;;;3.00;3.00;;;;;13.33;100.00;99086.81;6197113;28;96823;-69
2023/10/16 09:21:57;;;;;;;;;4.00;4.00;;;;;13.44;100.00;99094.94;6214192;28;96514;-69
2023/10/16 09:25:00;;;;;;;;;4.00;4.00;;;;;13.35;100.00;99090.91;6196504;28;96628;-69
2023/10/16 09:28:04;;;;;;;;;3.50;3.00;;;;;13.33;100.00;99093.06;6215007;28;96584;-68
2023/10/16 09:31:08;;;;;;;;;7.40;6.80;;;;;13.18;100.00;99070.19;6196570;28;98527;-70
2023/10/16 09:34:20;;;;;;;;;5.80;5.80;;;;;13.23;100.00;99070.31;6214189;28;96968;-70
2023/10/16 09:37:29;;;;;;;;;8.00;7.00;;;;;13.34;100.00;99102.00;6214895;28;96493;-69
2023/10/16 09:40:37;;;;;;;;;5.00;4.50;;;;;13.44;100.00;99108.47;6216522;28;96523;-68
2023/10/16 09:43:44;;;;;;;;;5.00;4.40;;;;;13.47;100.00;99101.78;6181095;28;97034;-68
2023/10/16 09:46:54;;;;;;;;;3.00;2.40;;;;;13.51;100.00;99112.94;6197701;28;97137;-70
2023/10/16 09:50:00;;;;;;;;;4.00;3.40;;;;;13.46;100.00;99102.81;6198022;28;96790;-69
2023/10/16 09:53:05;;;;;;;;;5.00;3.40;;;;;13.41;100.00;99106.25;6197922;28;96576;-69
2023/10/16 09:56:12;;;;;;;;;4.80;4.80;;;;;13.50;100.00;99104.00;6216270;28;96373;-69
2023/10/16 09:59:26;;;;;;;;;6.00;6.00;;;;;13.61;100.00;99105.88;6197451;28;98691;-70
2023/10/16 10:02:35;;;;;;;;;8.00;8.00;;;;;13.68;100.00;99106.56;6214690;28;96638;-69
2023/10/16 10:05:49;;;;;;;;;4.20;3.80;;;;;13.55;100.00;99108.72;6180949;28;99608;-69
2023/10/16 10:12:42;;;;;;;;;7.25;7.00;;;;;13.42;100.00;99107.91;6214098;28;96520;-69
2023/10/16 10:15:49;;;;;;;;;7.60;6.00;;;;;13.45;100.00;99112.00;6181097;28;96971;-69
2023/10/16 10:19:01;;;;;;;;;6.00;6.00;;;;;13.40;100.00;99120.00;6214582;28;97057;-69
2023/10/16 10:22:15;;;;;;;;;6.60;6.60;;;;;13.43;100.00;99119.56;6197359;28;96532;-70
2023/10/16 10:25:29;;;;;;;;;9.00;9.00;;;;;13.41;100.00;99133.31;6215640;28;96317;-70
2023/10/16 10:28:36;;;;;;;;;8.40;8.00;;;;;13.34;100.00;99129.09;6214429;28;96408;-70
2023/10/16 10:31:42;;;;;;;;;6.60;5.60;;;;;13.21;100.00;99124.69;6199761;28;98603;-70
2023/10/16 10:34:46;;;;;;;;;5.00;4.00;;;;;13.02;100.00;99086.03;6213932;28;96810;-70
2023/10/16 10:38:07;;;;;;;;;5.00;5.00;;;;;13.26;100.00;99116.69;6214262;28;96357;-70
2023/10/16 10:41:17;;;;;;;;;11.00;10.40;;;;;13.36;100.00;99133.19;6213442;28;96373;-70
2023/10/16 10:44:29;;;;;;;;;6.00;6.00;;;;;13.45;100.00;99115.53;6192737;28;97110;-70
2023/10/16 10:47:32;;;;;;;;;9.00;8.40;;;;;13.61;100.00;99114.03;6171699;28;98737;-70
2023/10/16 10:50:38;;;;;;;;;6.60;6.60;;;;;13.55;100.00;99108.72;6215411;28;97063;-70
2023/10/16 10:53:56;;;;;;;;;7.00;7.00;;;;;13.70;100.00;99125.31;6213716;28;96649;-70
2023/10/16 10:57:07;;;;;;;;;5.00;5.00;;;;;13.72;100.00;99118.63;6214667;28;97329;-70
2023/10/16 11:00:25;;;;;;;;;8.00;7.80;;;;;13.73;100.00;99122.16;6204617;28;96361;-70
2023/10/16 11:03:33;;;;;;;;;7.40;6.40;;;;;13.77;100.00;99107.91;6209148;28;96478;-70
2023/10/16 11:06:42;;;;;;;;;7.00;7.00;;;;;13.62;100.00;99082.34;6213824;28;96655;-70
2023/10/16 11:09:47;;;;;;;;;8.00;8.00;;;;;13.95;100.00;99097.97;6199476;28;96956;-70
2023/10/16 11:12:51;;;;;;;;;7.00;7.00;;;;;13.99;100.00;99120.81;6188036;28;96805;-70
2023/10/16 11:15:57;;;;;;;;;8.00;7.00;;;;;14.01;100.00;99119.53;6216346;28;96942;-70
2023/10/16 11:19:08;;;;;;;;;5.00;5.00;;;;;13.83;100.00;99084.41;6195801;28;96265;-70
2023/10/16 11:22:18;;;;;;;;;5.20;5.00;;;;;14.14;100.00;99115.72;6193991;28;96577;-70
2023/10/16 11:25:28;;;;;;;;;4.00;4.00;;;;;14.21;100.00;99113.72;6197492;28;96488;-70
2023/10/16 11:28:32;;;;;;;;;7.00;5.00;;;;;14.37;100.00;99109.47;6179608;28;96124;-70
2023/10/16 11:31:40;;;;;;;;;8.60;7.00;;;;;14.46;100.00;99110.72;6194693;28;96324;-71
2023/10/16 11:34:44;;;;;;;;;6.60;6.60;;;;;14.42;100.00;99104.13;6195014;28;97695;-70
2023/10/16 11:37:51;;;;;;;;;7.00;7.00;;;;;14.61;100.00;99095.53;6205880;28;96860;-68
2023/10/16 11:40:56;;;;;;;;;7.00;7.00;;;;;14.82;100.00;99102.19;6200329;28;97693;-72
2023/10/16 11:44:01;;;;;;;;;8.00;8.00;;;;;15.11;100.00;99098.34;6192720;28;97151;-73
2023/10/16 11:47:08;;;;;;;;;9.40;8.40;;;;;15.20;100.00;99089.81;6208673;28;96720;-73
2023/10/16 11:50:17;;;;;;;;;7.00;7.00;;;;;15.33;100.00;99098.47;6177456;28;96708;-74
2023/10/16 11:53:23;;;;;;;;;8.00;8.00;;;;;15.29;100.00;99094.59;6192309;28;96759;-73
2023/10/16 11:56:34;;;;;;;;;7.75;7.75;;;;;15.27;100.00;99099.44;6212261;28;96335;-73
2023/10/16 11:59:37;;;;;;;;;8.00;7.40;;;;;15.80;100.00;99098.09;6209922;28;96714;-73
2023/10/16 12:02:40;;;;;;;;;8.00;8.00;;;;;15.66;100.00;99099.53;6193123;28;98559;-73
2023/10/16 12:05:45;;;;;;;;;8.00;8.00;;;;;15.49;100.00;99092.16;6178210;28;96061;-74
2023/10/16 12:08:49;;;;;;;;;8.00;7.00;;;;;15.49;100.00;99097.59;6212156;28;96694;-74
2023/10/16 12:11:54;;;;;;;;;6.50;6.50;;;;;15.09;100.00;99086.09;6193949;28;96795;-73
2023/10/16 12:14:57;;;;;;;;;8.40;8.40;;;;;15.19;100.00;99080.84;6191686;28;96303;-73
2023/10/16 12:18:01;;;;;;;;;7.40;6.40;;;;;15.03;100.00;99076.22;6177669;28;97064;-73
2023/10/16 12:21:08;;;;;;;;;6.00;5.60;;;;;15.03;100.00;99081.66;6212068;28;96717;-73
2023/10/16 12:24:11;;;;;;;;;5.00;4.00;;;;;14.95;100.00;99079.34;6212285;28;96317;-73
2023/10/16 12:27:16;;;;;;;;;5.20;5.20;;;;;15.00;100.00;99074.00;6210448;28;97239;-72
2023/10/16 12:30:20;;;;;;;;;5.60;5.60;;;;;15.01;100.00;99081.88;6205516;28;97070;-72
2023/10/16 12:33:25;;;;;;;;;6.75;5.75;;;;;14.85;100.00;99077.28;6197102;28;96513;-71
2023/10/16 12:36:29;;;;;;;;;7.00;7.00;;;;;14.72;100.00;99067.53;6192636;28;96811;-73
2023/10/16 12:39:32;;;;;;;;;8.20;8.20;;;;;14.79;100.00;99072.81;6216215;28;97050;-73
2023/10/16 12:42:37;;;;;;;;;8.00;8.00;;;;;14.79;100.00;99072.81;6210474;28;97323;-73
2023/10/16 12:45:40;;;;;;;;;6.40;6.40;;;;;14.88;100.00;99070.53;6210881;28;96733;-73
2023/10/16 12:48:44;;;;;;;;;5.00;5.00;;;;;14.91;100.00;99072.75;6195349;28;96502;-73
2023/10/16 12:51:48;;;;;;;;;5.00;4.60;;;;;14.83;100.00;99056.88;6198757;28;96312;-72
2023/10/16 12:54:52;;;;;;;;;6.00;6.00;;;;;14.94;100.00;99073.09;6216762;28;96378;-73
2023/10/16 12:57:57;;;;;;;;;5.00;5.00;;;;;15.04;100.00;99067.00;6215041;28;97950;-73
2023/10/16 13:01:04;;;;;;;;;6.40;6.00;;;;;14.89;100.00;99067.56;6222857;28;96359;-73
2023/10/16 13:04:14;;;;;;;;;7.00;6.60;;;;;14.88;100.00;99060.50;6195457;28;96544;-74
2023/10/16 13:07:18;;;;;;;;;6.20;6.20;;;;;15.01;100.00;99065.59;6205622;28;96895;-72
2023/10/16 13:10:41;;;;;;;;;7.00;7.00;;;;;15.04;100.00;99058.88;6216620;28;96277;-73
2023/10/16 13:13:46;;;;;;;;;8.00;7.00;;;;;15.00;100.00;99058.50;6197812;28;96475;-72
2023/10/16 13:16:54;;;;;;;;;5.00;4.67;;;;;15.00;100.00;99057.72;6197572;28;98476;-71
2023/10/16 13:19:57;;;;;;;;;7.60;6.80;;;;;15.11;100.00;99056.78;6196421;28;98805;-72
2023/10/16 13:23:05;;;;;;;;;4.80;4.80;;;;;15.02;100.00;99055.56;6179230;28;98542;-72
2023/10/16 13:26:08;;;;;;;;;7.00;6.80;;;;;15.14;100.00;99049.00;6213783;28;96536;-72
2023/10/16 13:29:13;;;;;;;;;8.00;7.00;;;;;15.27;100.00;99047.81;6194249;28;96316;-72
2023/10/16 13:32:16;;;;;;;;;6.80;6.00;;;;;15.34;100.00;99050.38;6172351;28;96698;-72
2023/10/16 13:35:22;;;;;;;;;7.00;6.00;;;;;15.41;100.00;99048.31;6191066;28;98474;-72
2023/10/16 13:38:26;;;;;;;;;6.00;5.00;;;;;15.31;100.00;99059.00;6196607;28;97720;-72
2023/10/16 13:41:30;;;;;;;;;7.00;7.00;;;;;15.22;100.00;99045.03;6215914;28;96315;-72
2023/10/16 13:44:36;;;;;;;;;6.25;6.25;;;;;15.08;100.00;99041.00;6214908;28;96610;-72
2023/10/16 13:47:42;;;;;;;;;6.00;6.00;;;;;14.95;99.91;99047.59;6215824;28;96894;-72
2023/10/16 13:50:47;;;;;;;;;6.00;5.00;;;;;15.03;100.00;99049.91;6213327;28;96879;-72
2023/10/16 13:53:50;;;;;;;;;7.00;6.40;;;;;14.89;100.00;99045.03;6215452;28;96354;-72
2023/10/16 13:56:55;;;;;;;;;5.60;5.60;;;;;14.98;100.00;99048.97;6197603;28;96870;-72
2023/10/16 13:59:59;;;;;;;;;7.80;7.80;;;;;14.74;100.00;99010.31;6212995;28;96895;-71
2023/10/16 14:03:08;;;;;;;;;5.40;5.40;;;;;15.10;100.00;99041.59;6195407;28;98616;-71
2023/10/16 14:06:22;;;;;;;;;7.00;6.00;;;;;15.23;100.00;99045.84;6210429;28;97066;-72
2023/10/16 14:09:28;;;;;;;;;6.00;6.00;;;;;15.26;99.92;99051.59;6214806;28;96312;-72
2023/10/16 14:12:37;;;;;;;;;6.75;5.75;;;;;15.28;100.00;99056.81;6191658;28;96832;-73
2023/10/16 14:15:42;;;;;;;;;7.25;7.25;;;;;15.59;99.71;99059.75;6191693;28;96391;-72
2023/10/16 14:18:45;;;;;;;;;8.00;7.00;;;;;15.96;96.95;99051.84;6215132;28;96383;-73
2023/10/16 14:21:48;;;;;;;;;5.80;5.80;;;;;16.01;96.99;99048.38;6185289;28;96715;-72
2023/10/16 14:24:51;;;;;;;;;6.00;5.80;;;;;15.75;95.36;99024.63;6214143;28;96892;-72
2023/10/16 14:27:55;;;;;;;;;6.00;5.00;;;;;15.74;96.08;99047.44;6214284;28;96383;-72
2023/10/16 14:31:01;;;;;;;;;6.00;6.00;;;;;15.55;97.32;99041.47;6212844;28;96559;-73
2023/10/16 14:34:05;;;;;;;;;5.00;5.00;;;;;15.28;98.41;99046.75;6184037;28;97166;-72
2023/10/16 14:37:09;;;;;;;;;5.00;5.00;;;;;14.96;99.80;99051.94;6178874;28;96965;-72
2023/10/16 14:40:15;;;;;;;;;10.00;9.00;;;;;14.87;100.00;99049.88;6179626;28;96630;-71
2023/10/16 14:43:19;;;;;;;;;3.80;3.80;;;;;15.15;100.00;99055.22;6211847;28;96592;-72
2023/10/16 14:46:25;;;;;;;;;6.00;6.00;;;;;15.35;100.00;99058.25;6194742;28;99367;-72
2023/10/16 14:49:29;;;;;;;;;6.40;6.40;;;;;15.63;100.00;99054.66;6210815;28;96733;-72
2023/10/16 14:52:32;;;;;;;;;5.50;5.50;;;;;15.76;98.89;99058.91;6193562;28;97759;-71
2023/10/16 14:55:36;;;;;;;;;5.60;4.60;;;;;15.80;99.21;99035.56;6186787;28;96324;-71
2023/10/16 14:58:40;;;;;;;;;8.00;8.00;;;;;16.07;98.62;99057.41;6169576;28;97356;-72
2023/10/16 15:01:47;;;;;;;;;6.80;6.00;;;;;16.19;97.95;99053.47;6188447;28;96720;-72
2023/10/16 15:04:54;;;;;;;;;5.00;5.00;;;;;16.24;97.80;99050.81;6184163;28;96875;-72
2023/10/16 15:07:58;;;;;;;;;8.00;7.60;;;;;16.24;98.00;99050.81;6207956;28;96372;-72
2023/10/16 15:11:02;;;;;;;;;6.00;6.00;;;;;15.95;98.38;99036.59;6193430;28;97016;-71
2023/10/16 15:14:07;;;;;;;;;6.00;6.00;;;;;15.92;99.12;99041.72;6211562;28;96518;-70
2023/10/16 15:17:11;;;;;;;;;6.50;6.00;;;;;15.74;99.89;99045.53;6188895;28;96316;-73
2023/10/16 15:20:15;;;;;;;;;7.33;6.33;;;;;15.53;100.00;99049.91;6201951;28;96721;-71
2023/10/16 15:23:18;;;;;;;;;7.00;5.25;;;;;15.26;100.00;99053.50;6198279;28;96656;-72
2023/10/16 15:26:24;;;;;;;;;6.00;6.00;;;;;15.06;100.00;99057.53;6190650;28;96755;-71
2023/10/16 15:29:28;;;;;;;;;9.00;9.00;;;;;14.96;100.00;99046.50;6189590;28;96755;-72
2023/10/16 15:32:33;;;;;;;;;8.00;8.00;;;;;14.69;100.00;99053.63;6195867;28;97518;-71
2023/10/16 15:35:38;;;;;;;;;7.00;6.40;;;;;14.58;100.00;99052.63;6189793;28;97189;-72
2023/10/16 15:38:43;;;;;;;;;10.40;10.00;;;;;14.39;100.00;99053.06;6209700;28;97416;-71
2023/10/16 15:41:47;;;;;;;;;8.40;8.00;;;;;14.26;100.00;99063.13;6205127;28;96797;-71